Time;durP1;ratioP1;P1;durP2;ratioP2;P2;SDS_P1;SDS_P2;PMS_P1;PMS_P2;Temp;Humidity;BMP_temperature;BMP_pressure;BME280_temperature;BME280_humidity;BME280_pressure;Samples;Min_cycle;Max_cycle;Signal;HPM_P1;HPM_P2
2022/04/17 00:00:59;;;;;;;0.40;0.20;;;;;;;15.27;85.58;94858.16;5092031;28;20413;-53
2022/04/17 00:03:27;;;;;;;0.60;0.60;;;;;;;15.33;83.46;94864.13;5091545;28;20467;-53
2022/04/17 00:05:56;;;;;;;0.30;0.20;;;;;;;14.95;81.62;94871.84;5092007;28;20428;-54
2022/04/17 00:08:24;;;;;;;1.00;0.47;;;;;;;15.03;81.28;94868.41;5091841;28;20424;-52
2022/04/17 00:10:53;;;;;;;0.40;0.30;;;;;;;14.44;84.67;94856.34;5091467;28;20512;-52
2022/04/17 00:13:22;;;;;;;0.40;0.30;;;;;;;14.81;83.76;94881.03;5091922;28;20504;-52
2022/04/17 00:15:52;;;;;;;0.40;0.30;;;;;;;15.26;78.21;94879.81;5091375;28;20512;-52
2022/04/17 00:18:21;;;;;;;0.40;0.30;;;;;;;15.61;75.96;94884.19;5091536;28;20421;-53
2022/04/17 00:20:50;;;;;;;0.40;0.20;;;;;;;15.67;77.19;94872.28;5091508;28;20982;-53
2022/04/17 00:23:18;;;;;;;0.57;0.40;;;;;;;15.68;78.27;94870.41;5091479;28;20424;-53
2022/04/17 00:25:47;;;;;;;0.30;0.20;;;;;;;15.57;79.23;94880.59;5091487;28;20527;-53
2022/04/17 00:28:15;;;;;;;0.43;0.27;;;;;;;14.88;81.98;94882.16;5091498;28;20421;-53
2022/04/17 00:30:44;;;;;;;1.07;0.40;;;;;;;14.68;86.62;94871.22;5091280;28;20507;-53
2022/04/17 00:33:14;;;;;;;0.50;0.50;;;;;;;14.98;84.80;94873.09;5091024;28;20515;-53
2022/04/17 00:35:43;;;;;;;0.40;0.40;;;;;;;15.05;84.85;94876.13;5093112;28;20477;-52
2022/04/17 00:38:11;;;;;;;1.63;0.37;;;;;;;15.16;83.32;94869.41;5095390;28;20416;-52
2022/04/17 00:40:40;;;;;;;0.40;0.30;;;;;;;14.66;91.17;94887.53;5095316;28;20507;-52
2022/04/17 00:43:25;;;;;;;0.60;0.40;;;;;;;12.88;100.00;94755.13;5094963;28;20453;-52
2022/04/17 00:45:54;;;;;;;0.60;0.57;;;;;;;13.59;100.00;94898.19;5095202;28;20420;-52
2022/04/17 00:48:24;;;;;;;1.73;0.50;;;;;;;13.96;100.00;94887.31;5095223;28;20511;-52
2022/04/17 00:50:56;;;;;;;0.50;0.43;;;;;;;13.71;100.00;94895.84;5095048;28;20948;-52
2022/04/17 00:53:26;;;;;;;0.50;0.50;;;;;;;13.54;100.00;94901.75;5094973;28;20427;-52
2022/04/17 00:55:56;;;;;;;11.80;0.60;;;;;;;12.92;100.00;94819.94;5095430;28;20872;-52
2022/04/17 00:58:25;;;;;;;5.23;1.60;;;;;;;13.59;100.00;94901.66;5094979;28;20447;-52
2022/04/17 01:00:53;;;;;;;0.37;0.27;;;;;;;13.92;100.00;94896.97;5094871;28;20428;-52
2022/04/17 01:03:23;;;;;;;0.50;0.33;;;;;;;14.52;96.23;94878.81;5095121;28;20509;-52
2022/04/17 01:05:51;;;;;;;0.57;0.57;;;;;;;14.57;94.87;94874.13;5095088;28;20424;-52
2022/04/17 01:08:20;;;;;;;1.27;0.50;;;;;;;14.86;92.54;94889.69;5094664;28;20500;-52
2022/04/17 01:10:48;;;;;;;0.50;0.30;;;;;;;14.85;91.18;94880.09;5094721;28;20549;-52
2022/04/17 01:13:18;;;;;;;0.47;0.47;;;;;;;14.68;94.02;94885.34;5094681;28;20436;-52
2022/04/17 01:15:47;;;;;;;0.40;0.40;;;;;;;14.88;92.35;94876.81;5094901;28;20818;-53
2022/04/17 01:18:15;;;;;;;0.30;0.20;;;;;;;15.05;91.23;94890.25;5094916;28;20871;-52
2022/04/17 01:20:45;;;;;;;0.40;0.40;;;;;;;15.08;90.91;94888.84;5094785;28;20438;-52
2022/04/17 01:28:47;;;;;;;0.47;0.43;;;;;;;14.67;95.92;94893.66;5094323;28;20429;-52
2022/04/17 01:31:15;;;;;;;0.87;0.87;;;;;;;15.01;90.63;94902.63;5094472;28;20467;-52
2022/04/17 01:33:47;;;;;;;0.67;0.63;;;;;;;14.77;93.22;94899.53;5094094;28;20459;-52
2022/04/17 01:36:16;;;;;;;0.43;0.30;;;;;;;14.75;93.34;94904.38;5094250;28;20420;-52
2022/04/17 01:38:45;;;;;;;0.93;0.93;;;;;;;14.68;92.97;94901.34;5094079;28;20499;-52
2022/04/17 01:41:15;;;;;;;0.50;0.50;;;;;;;14.14;97.16;94912.97;5094060;28;20425;-52
2022/04/17 01:43:44;;;;;;;0.50;0.50;;;;;;;14.31;97.72;94917.72;5094258;28;20499;-52
2022/04/17 01:46:13;;;;;;;1.03;0.87;;;;;;;14.28;99.46;94915.63;5093769;28;20452;-52
2022/04/17 01:48:41;;;;;;;0.80;0.80;;;;;;;14.35;98.68;94913.34;5093923;28;20511;-52
2022/04/17 01:51:10;;;;;;;0.37;0.27;;;;;;;14.34;100.00;94933.13;5093900;28;20427;-52
2022/04/17 01:53:38;;;;;;;0.60;0.50;;;;;;;14.36;100.00;94906.94;5093596;28;20467;-51
2022/04/17 01:56:08;;;;;;;0.40;0.30;;;;;;;14.20;100.00;94909.13;5093724;28;20979;-52
2022/04/17 01:58:37;;;;;;;0.40;0.40;;;;;;;14.38;100.00;94913.53;5093617;28;20431;-52
2022/04/17 02:01:06;;;;;;;0.40;0.30;;;;;;;14.49;100.00;94895.44;5093508;28;20932;-52
2022/04/17 02:03:35;;;;;;;0.37;0.30;;;;;;;13.78;100.00;94896.22;5093689;28;20417;-52
2022/04/17 02:06:03;;;;;;;0.50;0.30;;;;;;;13.86;100.00;94896.28;5093781;28;20519;-52
2022/04/17 02:08:32;;;;;;;0.57;0.40;;;;;;;14.08;100.00;94903.53;5093718;28;20838;-52
2022/04/17 02:11:00;;;;;;;0.30;0.20;;;;;;;13.95;100.00;94886.50;5092958;28;20483;-53
2022/04/17 02:13:30;;;;;;;1.37;0.30;;;;;;;14.15;100.00;94895.13;5093722;28;20551;-53
2022/04/17 02:15:59;;;;;;;0.60;0.60;;;;;;;14.02;100.00;94904.72;5093400;28;20816;-53
2022/04/17 02:18:27;;;;;;;1.00;0.90;;;;;;;13.52;100.00;94917.25;5093760;28;20475;-53
2022/04/17 02:20:59;;;;;;;0.87;0.60;;;;;;;13.35;100.00;94917.06;5093686;28;20875;-53
2022/04/17 02:23:27;;;;;;;0.40;0.30;;;;;;;13.88;100.00;94885.34;5093922;28;20493;-53
2022/04/17 02:25:56;;;;;;;0.43;0.30;;;;;;;14.41;100.00;94904.94;5093270;28;20425;-53
2022/04/17 02:28:24;;;;;;;0.50;0.47;;;;;;;14.76;100.00;94900.63;5093500;28;20502;-52
2022/04/17 02:30:54;;;;;;;0.30;0.20;;;;;;;14.59;100.00;94897.84;5093434;28;20786;-52
2022/04/17 02:33:22;;;;;;;0.57;0.57;;;;;;;14.80;100.00;94900.81;5093229;28;20492;-52
2022/04/17 02:35:51;;;;;;;0.30;0.20;;;;;;;14.98;100.00;94907.78;5093071;28;20416;-52
2022/04/17 02:38:19;;;;;;;0.63;0.63;;;;;;;14.62;100.00;94898.00;5093055;28;20421;-52
2022/04/17 02:40:47;;;;;;;0.30;0.20;;;;;;;14.90;100.00;94905.88;5092808;28;20420;-52
2022/04/17 02:43:16;;;;;;;0.40;0.30;;;;;;;14.67;100.00;94840.31;5093197;28;20421;-52
2022/04/17 02:45:44;;;;;;;0.40;0.30;;;;;;;15.01;100.00;94910.66;5092916;28;20913;-52
2022/04/17 02:48:14;;;;;;;0.30;0.20;;;;;;;14.83;100.00;94916.19;5092833;28;20422;-52
2022/04/17 02:50:43;;;;;;;0.40;0.30;;;;;;;14.76;100.00;94921.97;5092734;28;20770;-52
2022/04/17 02:53:11;;;;;;;0.40;0.40;;;;;;;14.59;100.00;94919.97;5092944;28;20576;-52
2022/04/17 02:55:40;;;;;;;2.30;0.80;;;;;;;14.69;100.00;94910.94;5092950;28;20508;-52
2022/04/17 02:58:10;;;;;;;0.37;0.27;;;;;;;14.58;100.00;94906.94;5092400;28;20443;-52
2022/04/17 03:05:36;;;;;;;0.60;0.40;;;;;;;14.07;100.00;94819.34;5092759;28;20909;-52
2022/04/17 03:06:16;;;;;;;0.40;0.30;;;;;;;14.77;100.00;94928.09;5091562;28;20523;-52
2022/04/17 03:08:44;;;;;;;1.13;0.60;;;;;;;14.68;100.00;94940.56;5092701;28;20844;-52
2022/04/17 03:11:13;;;;;;;0.70;0.67;;;;;;;14.60;100.00;94944.75;5092268;28;20515;-52
2022/04/17 03:13:41;;;;;;;0.50;0.50;;;;;;;14.42;100.00;94940.41;5092302;28;20522;-52
2022/04/17 03:16:11;;;;;;;0.70;0.30;;;;;;;14.12;100.00;94951.69;5092183;28;20435;-52
2022/04/17 03:18:41;;;;;;;0.40;0.40;;;;;;;13.59;100.00;94959.44;5092556;28;20565;-52
2022/04/17 03:21:09;;;;;;;1.00;1.00;;;;;;;13.64;100.00;94948.69;5092152;28;20420;-52
2022/04/17 03:23:37;;;;;;;0.40;0.30;;;;;;;13.90;100.00;94953.22;5092149;28;20412;-52
2022/04/17 03:26:06;;;;;;;0.57;0.57;;;;;;;13.96;100.00;94953.91;5092468;28;20548;-52
2022/04/17 03:28:34;;;;;;;0.40;0.37;;;;;;;13.98;100.00;94952.53;5092136;28;20785;-52
2022/04/17 03:31:04;;;;;;;0.70;0.70;;;;;;;13.57;100.00;94954.44;5092340;28;20421;-52
2022/04/17 03:33:32;;;;;;;1.47;1.37;;;;;;;13.87;100.00;94950.34;5092301;28;20887;-52
2022/04/17 03:36:02;;;;;;;2.63;0.40;;;;;;;14.08;100.00;94927.53;5091997;28;20428;-52
2022/04/17 03:38:31;;;;;;;0.60;0.60;;;;;;;14.24;100.00;94952.78;5092211;28;20428;-52
2022/04/17 03:40:59;;;;;;;0.60;0.60;;;;;;;13.86;100.00;94914.16;5092429;28;20420;-52
2022/04/17 03:43:28;;;;;;;0.73;0.73;;;;;;;13.34;100.00;94880.88;5092443;28;20420;-52
2022/04/17 03:45:57;;;;;;;0.30;0.20;;;;;;;13.66;100.00;94882.63;5092314;28;20423;-52
2022/04/17 03:48:25;;;;;;;1.00;0.50;;;;;;;13.85;100.00;94948.00;5091977;28;20923;-52
2022/04/17 03:50:54;;;;;;;3.70;0.63;;;;;;;13.99;100.00;94946.09;5091602;28;20838;-52
2022/04/17 03:53:23;;;;;;;1.53;1.43;;;;;;;13.94;100.00;94946.19;5091922;28;20551;-52
2022/04/17 03:55:52;;;;;;;0.50;0.50;;;;;;;13.71;100.00;94943.78;5091808;28;20511;-52
2022/04/17 03:58:20;;;;;;;0.50;0.40;;;;;;;13.18;100.00;94941.56;5091899;28;20971;-52
2022/04/17 04:00:48;;;;;;;0.50;0.30;;;;;;;13.53;100.00;94945.47;5092129;28;20424;-51
2022/04/17 04:03:17;;;;;;;0.37;0.30;;;;;;;13.58;100.00;94941.91;5091850;28;20428;-52
2022/04/17 04:05:46;;;;;;;0.30;0.20;;;;;;;13.87;100.00;94942.34;5091685;28;21139;-52
2022/04/17 04:08:14;;;;;;;1.60;0.40;;;;;;;13.85;100.00;94942.66;5091456;28;20455;-52
2022/04/17 04:10:44;;;;;;;0.50;0.50;;;;;;;13.87;100.00;94948.47;5093525;28;20491;-52
2022/04/17 04:13:13;;;;;;;0.40;0.30;;;;;;;14.16;100.00;94936.69;5095804;28;20486;-52
2022/04/17 04:15:41;;;;;;;0.40;0.30;;;;;;;14.18;100.00;94942.50;5096520;28;20424;-52
2022/04/17 04:18:09;;;;;;;0.33;0.20;;;;;;;14.27;100.00;94940.72;5095845;28;20459;-52
2022/04/17 04:20:38;;;;;;;0.40;0.20;;;;;;;14.18;100.00;94947.81;5095202;28;20516;-52
2022/04/17 04:23:06;;;;;;;0.73;0.70;;;;;;;14.20;100.00;94946.44;5095605;28;20417;-52
2022/04/17 04:25:35;;;;;;;0.30;0.30;;;;;;;13.66;100.00;94936.66;5095639;28;20424;-52
2022/04/17 04:30:47;;;;;;;0.40;0.40;;;;;;;13.39;100.00;94934.00;5082502;28;20475;-52
2022/04/17 04:33:15;;;;;;;1.20;0.87;;;;;;;13.15;100.00;94949.38;5095838;28;20547;-52
2022/04/17 04:35:44;;;;;;;0.50;0.50;;;;;;;13.03;100.00;94955.13;5095473;28;20450;-52
2022/04/17 04:38:12;;;;;;;0.70;0.60;;;;;;;12.74;100.00;94882.78;5095462;28;20455;-52
2022/04/17 04:40:41;;;;;;;0.40;0.40;;;;;;;13.47;100.00;94951.16;5095621;28;20428;-51
2022/04/17 04:43:12;;;;;;;0.40;0.30;;;;;;;13.48;100.00;94944.78;5095270;28;20459;-52
2022/04/17 04:51:12;;;;;;;0.43;0.33;;;;;;;12.86;100.00;94922.19;5094763;28;20527;-51
2022/04/17 04:53:40;;;;;;;1.30;1.30;;;;;;;12.81;100.00;94940.88;5095123;28;20764;-51
2022/04/17 04:56:09;;;;;;;2.23;0.63;;;;;;;12.76;100.00;94949.75;5095151;28;20511;-52
2022/04/17 04:58:39;;;;;;;1.17;1.17;;;;;;;12.70;100.00;94949.03;5094777;28;20792;-52
2022/04/17 05:01:07;;;;;;;0.60;0.43;;;;;;;12.77;100.00;94884.84;5094971;28;20825;-52
2022/04/17 05:03:36;;;;;;;1.23;1.13;;;;;;;13.22;100.00;94941.78;5094782;28;20423;-52
2022/04/17 05:06:05;;;;;;;1.50;1.40;;;;;;;13.03;100.00;94939.16;5094706;28;20502;-52
2022/04/17 05:08:33;;;;;;;8.97;0.80;;;;;;;12.91;100.00;94935.38;5094785;28;20422;-52
2022/04/17 05:11:01;;;;;;;0.47;0.47;;;;;;;12.68;100.00;94871.44;5094433;28;20517;-51
2022/04/17 05:13:30;;;;;;;1.37;1.37;;;;;;;13.34;100.00;94928.78;5094936;28;20499;-52
2022/04/17 05:16:00;;;;;;;0.37;0.27;;;;;;;13.15;100.00;94922.78;5095200;28;20420;-52
2022/04/17 05:18:31;;;;;;;0.40;0.30;;;;;;;13.16;100.00;94916.34;5094685;28;20437;-51
2022/04/17 05:20:59;;;;;;;0.33;0.27;;;;;;;13.34;100.00;94926.91;5094036;28;20452;-52
2022/04/17 05:23:29;;;;;;;0.73;0.40;;;;;;;13.12;100.00;94931.34;5094681;28;20507;-52
2022/04/17 05:26:00;;;;;;;0.60;0.60;;;;;;;13.10;100.00;94918.34;5094466;28;20504;-52
2022/04/17 05:28:29;;;;;;;0.50;0.50;;;;;;;13.12;100.00;94915.38;5094701;28;20428;-52
2022/04/17 05:30:58;;;;;;;1.03;1.03;;;;;;;12.63;100.00;94923.91;5094690;28;20425;-52
2022/04/17 05:33:28;;;;;;;0.57;0.57;;;;;;;13.11;100.00;94913.78;5094219;28;21005;-52
2022/04/17 05:35:57;;;;;;;0.37;0.30;;;;;;;13.37;100.00;94904.25;5094307;28;20516;-52
2022/04/17 05:38:25;;;;;;;0.40;0.40;;;;;;;13.43;100.00;94892.41;5094292;28;20449;-52
2022/04/17 05:40:54;;;;;;;0.43;0.40;;;;;;;13.62;100.00;94906.38;5094215;28;20474;-52
2022/04/17 05:43:23;;;;;;;1.07;0.80;;;;;;;13.30;100.00;94901.19;5094163;28;21019;-51
2022/04/17 05:45:52;;;;;;;1.10;0.50;;;;;;;13.07;100.00;94902.94;5094082;28;20416;-52
2022/04/17 05:48:20;;;;;;;0.40;0.40;;;;;;;12.96;100.00;94896.19;5094109;28;20981;-52
2022/04/17 05:50:50;;;;;;;1.43;1.37;;;;;;;12.88;100.00;94904.06;5093913;28;20512;-52
2022/04/17 05:53:19;;;;;;;1.43;0.77;;;;;;;12.72;100.00;94898.25;5093825;28;20466;-51
2022/04/17 05:55:47;;;;;;;0.60;0.50;;;;;;;12.85;100.00;94891.38;5093910;28;20416;-51
2022/04/17 05:58:15;;;;;;;8.13;1.20;;;;;;;12.77;100.00;94902.69;5093815;28;20527;-51
2022/04/17 06:00:44;;;;;;;3.60;0.83;;;;;;;13.00;100.00;94891.88;5093715;28;20485;-52
2022/04/17 06:03:15;;;;;;;0.40;0.30;;;;;;;13.36;100.00;94897.31;5093001;28;20961;-52
2022/04/17 06:05:44;;;;;;;0.40;0.40;;;;;;;13.15;100.00;94829.63;5093885;28;20409;-51
2022/04/17 06:08:14;;;;;;;0.97;0.97;;;;;;;12.89;100.00;94895.00;5093673;28;20422;-52
2022/04/17 06:10:43;;;;;;;0.70;0.70;;;;;;;12.55;100.00;94896.09;5093722;28;20896;-52
2022/04/17 06:13:11;;;;;;;0.93;0.93;;;;;;;12.35;100.00;94888.47;5093579;28;20436;-52
2022/04/17 06:15:40;;;;;;;0.63;0.63;;;;;;;12.40;100.00;94892.91;5093529;28;20471;-52
2022/04/17 06:18:10;;;;;;;3.80;1.30;;;;;;;12.23;100.00;94882.03;5093749;28;20424;-52
2022/04/17 06:20:38;;;;;;;0.70;0.70;;;;;;;12.22;100.00;94877.81;5093361;28;20882;-52
2022/04/17 06:23:07;;;;;;;0.93;0.93;;;;;;;12.04;100.00;94885.47;5093211;28;20482;-52
2022/04/17 06:25:36;;;;;;;0.87;0.87;;;;;;;12.08;100.00;94885.72;5093529;28;20512;-51
2022/04/17 06:28:05;;;;;;;2.73;0.70;;;;;;;11.71;100.00;94885.72;5093312;28;20493;-51
2022/04/17 06:30:34;;;;;;;1.00;0.90;;;;;;;11.78;100.00;94878.19;5093041;28;20428;-51
2022/04/17 06:33:02;;;;;;;0.40;0.30;;;;;;;11.83;100.00;94878.91;5092270;28;20420;-51
2022/04/17 06:35:31;;;;;;;0.67;0.67;;;;;;;11.75;100.00;94876.88;5093092;28;20468;-51
2022/04/17 06:38:01;;;;;;;0.60;0.60;;;;;;;11.57;100.00;94874.19;5093017;28;20523;-51
2022/04/17 06:40:31;;;;;;;0.87;0.47;;;;;;;12.24;100.00;94873.78;5091890;28;21143;-52
2022/04/17 06:43:05;;;;;;;0.50;0.40;;;;;;;12.48;100.00;94858.50;5092286;28;20466;-51
2022/04/17 06:45:36;;;;;;;0.60;0.50;;;;;;;12.31;100.00;94866.22;5092403;28;20706;-51
2022/04/17 06:48:15;;;;;;;0.57;0.50;;;;;;;12.33;100.00;94874.69;5092448;28;20424;-51
2022/04/17 06:50:43;;;;;;;0.43;0.37;;;;;;;12.04;100.00;94837.66;5092093;28;20448;-51
2022/04/17 06:53:12;;;;;;;1.70;0.70;;;;;;;12.26;100.00;94863.66;5090125;28;20452;-51
2022/04/17 06:55:40;;;;;;;1.47;1.37;;;;;;;12.67;100.00;94861.88;5091031;28;20514;-51
2022/04/17 06:58:10;;;;;;;2.00;0.50;;;;;;;13.13;100.00;94859.19;5090918;28;20455;-51
2022/04/17 07:00:39;;;;;;;0.40;0.20;;;;;;;13.28;100.00;94863.44;5091941;28;20448;-51
2022/04/17 07:03:08;;;;;;;0.57;0.57;;;;;;;13.36;100.00;94854.75;5091598;28;20961;-51
2022/04/17 07:05:37;;;;;;;0.40;0.30;;;;;;;13.15;100.00;94866.88;5091803;28;20469;-51
2022/04/17 07:08:07;;;;;;;0.50;0.40;;;;;;;13.36;100.00;94873.38;5091947;28;20820;-51
2022/04/17 07:10:38;;;;;;;0.80;0.80;;;;;;;12.88;100.00;94872.13;5091685;28;20498;-51
2022/04/17 07:13:06;;;;;;;0.30;0.20;;;;;;;13.44;100.00;94880.66;5091931;28;20444;-51
2022/04/17 07:15:36;;;;;;;2.00;1.90;;;;;;;13.62;100.00;94866.44;5091507;28;21004;-51
2022/04/17 07:18:04;;;;;;;0.40;0.27;;;;;;;13.25;100.00;94878.13;5091545;28;20505;-51
2022/04/17 07:20:34;;;;;;;0.60;0.40;;;;;;;13.19;100.00;94886.50;5091355;28;20459;-51
2022/04/17 07:23:02;;;;;;;0.40;0.30;;;;;;;13.04;100.00;94884.88;5091727;28;20436;-51
2022/04/17 07:25:31;;;;;;;0.40;0.30;;;;;;;13.18;100.00;94888.34;5091436;28;20928;-51
2022/04/17 07:27:59;;;;;;;0.50;0.47;;;;;;;13.21;100.00;94887.78;5091963;28;20534;-51
2022/04/17 07:30:29;;;;;;;0.60;0.60;;;;;;;13.50;100.00;94895.47;5091409;28;20507;-52
2022/04/17 07:33:00;;;;;;;0.40;0.30;;;;;;;13.36;100.00;94897.31;5091602;28;20425;-52
2022/04/17 07:35:30;;;;;;;0.40;0.30;;;;;;;12.86;100.00;94850.38;5091336;28;20460;-51
2022/04/17 07:38:00;;;;;;;0.40;0.40;;;;;;;13.47;100.00;94904.03;5091877;28;20462;-54
2022/04/17 07:40:31;;;;;;;2.73;1.33;;;;;;;13.90;100.00;94899.94;5091588;28;20424;-52
2022/04/17 07:43:01;;;;;;;0.40;0.30;;;;;;;13.90;100.00;94901.81;5091792;28;20416;-52
2022/04/17 07:45:30;;;;;;;0.40;0.30;;;;;;;13.18;100.00;94900.91;5091382;28;20605;-51
2022/04/17 07:48:01;;;;;;;0.30;0.20;;;;;;;13.05;100.00;94906.97;5091477;28;20444;-52
2022/04/17 07:50:31;;;;;;;0.30;0.30;;;;;;;13.05;100.00;94898.97;5091311;28;21034;-52
2022/04/17 07:53:01;;;;;;;0.40;0.30;;;;;;;12.95;100.00;94840.66;5091197;28;20427;-52
2022/04/17 07:55:29;;;;;;;0.30;0.30;;;;;;;13.41;100.00;94899.88;5091452;28;20488;-52
2022/04/17 07:58:03;;;;;;;0.40;0.30;;;;;;;13.52;100.00;94901.28;5091339;28;20772;-53
2022/04/17 08:00:44;;;;;;;0.40;0.30;;;;;;;13.71;100.00;94888.63;5091262;28;20424;-52
2022/04/17 08:03:24;;;;;;;0.40;0.40;;;;;;;13.35;100.00;94898.44;5091130;28;20421;-52
2022/04/17 08:05:53;;;;;;;1.10;0.57;;;;;;;13.60;100.00;94891.81;5091323;28;20417;-54
2022/04/17 08:08:22;;;;;;;1.07;1.07;;;;;;;13.79;100.00;94893.25;5091223;28;20417;-51
2022/04/17 08:10:51;;;;;;;0.67;0.60;;;;;;;13.69;100.00;94904.09;5090913;28;21016;-52
2022/04/17 08:13:19;;;;;;;0.50;0.50;;;;;;;13.46;100.00;94905.13;5090889;28;20464;-52
2022/04/17 08:15:49;;;;;;;0.50;0.50;;;;;;;13.55;100.00;94900.69;5091116;28;20547;-52
2022/04/17 08:18:19;;;;;;;8.30;2.27;;;;;;;13.42;100.00;94896.16;5090737;28;20982;-52
2022/04/17 08:20:48;;;;;;;1.83;1.73;;;;;;;13.05;100.00;94893.66;5090610;28;20446;-51
2022/04/17 08:23:16;;;;;;;0.60;0.60;;;;;;;12.90;100.00;94860.16;5090664;28;20921;-51
2022/04/17 08:25:46;;;;;;;0.67;0.67;;;;;;;13.01;100.00;94885.47;5090623;28;20920;-50
2022/04/17 08:28:15;;;;;;;1.13;1.13;;;;;;;13.01;100.00;94888.13;5091069;28;20423;-51
2022/04/17 08:30:43;;;;;;;0.40;0.40;;;;;;;13.45;100.00;94876.13;5090875;28;20511;-51
2022/04/17 08:33:12;;;;;;;1.70;1.50;;;;;;;13.60;100.00;94871.28;5090829;28;20421;-51
2022/04/17 08:35:41;;;;;;;0.63;0.60;;;;;;;13.32;100.00;94856.44;5090587;28;21012;-51
2022/04/17 08:38:10;;;;;;;0.40;0.33;;;;;;;13.61;100.00;94859.53;5090693;28;20417;-51
2022/04/17 08:40:39;;;;;;;0.43;0.43;;;;;;;13.55;100.00;94851.97;5090534;28;20459;-51
2022/04/17 08:43:08;;;;;;;0.50;0.50;;;;;;;14.05;100.00;94847.38;5090926;28;20409;-52
2022/04/17 08:45:37;;;;;;;0.40;0.30;;;;;;;14.14;100.00;94840.25;5090570;28;20444;-51
2022/04/17 08:48:06;;;;;;;0.60;0.40;;;;;;;13.78;100.00;94833.09;5090815;28;20421;-51
2022/04/17 08:50:42;;;;;;;0.60;0.30;;;;;;;13.98;100.00;94821.19;5090398;28;20420;-52
2022/04/17 08:53:15;;;;;;;0.70;0.63;;;;;;;13.79;100.00;94821.31;5090375;28;20416;-52
2022/04/17 08:55:51;;;;;;;0.70;0.30;;;;;;;14.36;100.00;94817.09;5090616;28;20460;-51
2022/04/17 08:58:19;;;;;;;0.40;0.30;;;;;;;14.17;100.00;94808.44;5094486;28;20444;-51
2022/04/17 09:00:47;;;;;;;0.40;0.30;;;;;;;14.09;100.00;94811.84;5094103;28;20507;-51
2022/04/17 09:03:16;;;;;;;0.53;0.53;;;;;;;13.96;100.00;94800.16;5094059;28;20515;-51
2022/04/17 09:05:47;;;;;;;0.30;0.20;;;;;;;14.15;100.00;94793.84;5094043;28;20420;-50
2022/04/17 09:08:17;;;;;;;1.03;0.93;;;;;;;13.93;100.00;94781.34;5094082;28;20467;-50
2022/04/17 09:10:56;;;;;;;0.30;0.20;;;;;;;14.19;100.00;94757.53;5093680;28;20566;-50
2022/04/17 09:13:29;;;;;;;0.50;0.40;;;;;;;13.54;100.00;94779.28;5094372;28;20435;-50
2022/04/17 09:15:59;;;;;;;0.30;0.20;;;;;;;13.85;100.00;94785.50;5093624;28;20460;-50
2022/04/17 09:18:32;;;;;;;4.50;1.30;;;;;;;13.18;100.00;94750.00;5093840;28;20420;-51
2022/04/17 09:21:02;;;;;;;0.40;0.30;;;;;;;13.52;100.00;94759.38;5094104;28;20507;-51
2022/04/17 09:23:36;;;;;;;0.40;0.40;;;;;;;13.58;100.00;94761.66;5094059;28;20425;-50
2022/04/17 09:26:07;;;;;;;0.40;0.37;;;;;;;13.90;100.00;94766.75;5093613;28;20507;-51
2022/04/17 09:28:37;;;;;;;0.30;0.20;;;;;;;13.91;100.00;94736.31;5093798;28;20503;-51
2022/04/17 09:31:12;;;;;;;0.40;0.30;;;;;;;14.44;100.00;94749.69;5093923;28;20424;-51
2022/04/17 09:33:42;;;;;;;0.70;0.70;;;;;;;14.18;100.00;94753.28;5093643;28;20426;-52
2022/04/17 09:36:12;;;;;;;0.40;0.33;;;;;;;14.74;100.00;94737.41;5093539;28;20471;-51
2022/04/17 09:38:43;;;;;;;0.77;0.77;;;;;;;14.60;100.00;94734.06;5094100;28;20503;-52
2022/04/17 09:41:13;;;;;;;0.40;0.30;;;;;;;14.75;100.00;94730.97;5093840;28;20478;-51
2022/04/17 09:43:43;;;;;;;0.40;0.30;;;;;;;15.03;100.00;94729.66;5093736;28;20417;-51
2022/04/17 09:46:13;;;;;;;0.40;0.30;;;;;;;14.53;100.00;94654.50;5093612;28;20813;-51
2022/04/17 09:48:43;;;;;;;0.30;0.20;;;;;;;14.80;100.00;94714.81;5093687;28;20462;-52
2022/04/17 09:51:23;;;;;;;0.40;0.30;;;;;;;14.73;100.00;94705.69;5093447;28;20420;-52
2022/04/17 09:56:46;;;;;;;1.27;0.30;;;;;;;15.37;100.00;94712.09;5093214;28;20499;-52
2022/04/17 09:59:17;;;;;;;0.40;0.30;;;;;;;15.23;100.00;94701.56;5093337;28;20440;-52
2022/04/17 10:01:49;;;;;;;0.30;0.20;;;;;;;15.12;100.00;94719.78;5093478;28;20408;-52
2022/04/17 10:04:19;;;;;;;0.40;0.30;;;;;;;14.74;100.00;94619.25;5093118;28;20412;-52
2022/04/17 10:06:51;;;;;;;0.60;0.60;;;;;;;15.11;100.00;94693.38;5093285;28;20421;-52
2022/04/17 10:09:20;;;;;;;3.07;0.67;;;;;;;15.41;100.00;94702.34;5092910;28;20474;-52
2022/04/17 10:11:49;;;;;;;0.70;0.40;;;;;;;15.16;100.00;94711.94;5092973;28;20555;-51
2022/04/17 10:14:18;;;;;;;0.40;0.40;;;;;;;15.22;100.00;94700.81;5092903;28;20433;-51
2022/04/17 10:16:48;;;;;;;0.77;0.47;;;;;;;15.32;100.00;94713.06;5093063;28;20492;-52
2022/04/17 10:19:18;;;;;;;0.50;0.47;;;;;;;15.39;100.00;94696.56;5092783;28;20417;-52
2022/04/17 10:21:47;;;;;;;0.40;0.30;;;;;;;15.05;100.00;94700.00;5092743;28;20420;-52
2022/04/17 10:24:18;;;;;;;0.30;0.20;;;;;;;14.60;100.00;94689.50;5092690;28;20425;-52
2022/04/17 10:26:49;;;;;;;0.30;0.20;;;;;;;14.34;100.00;94693.19;5092720;28;20451;-52
2022/04/17 10:29:25;;;;;;;0.40;0.40;;;;;;;14.24;100.00;94696.88;5092896;28;20437;-51
2022/04/17 10:32:20;;;;;;;0.50;0.50;;;;;;;14.31;100.00;94685.81;5092555;28;20999;-51
2022/04/17 10:35:06;;;;;;;0.60;0.50;;;;;;;13.88;100.00;94689.00;5092705;28;20465;-51
2022/04/17 10:38:07;;;;;;;0.30;0.20;;;;;;;14.14;100.00;94691.78;5092396;28;20506;-51
2022/04/17 10:40:37;;;;;;;3.07;0.50;;;;;;;14.25;100.00;94693.09;5092664;28;20478;-51
2022/04/17 10:43:06;;;;;;;0.63;0.30;;;;;;;14.49;100.00;94698.13;5092530;28;20992;-51
2022/04/17 10:46:08;;;;;;;0.30;0.20;;;;;;;14.26;100.00;94685.91;5092307;28;20936;-51
2022/04/17 10:48:44;;;;;;;0.30;0.20;;;;;;;14.22;100.00;94677.72;5092112;28;20434;-51
2022/04/17 10:51:17;;;;;;;0.40;0.30;;;;;;;13.60;100.00;94652.94;5092403;28;20424;-51
2022/04/17 10:54:04;;;;;;;0.40;0.40;;;;;;;13.95;100.00;94678.69;5092338;28;20509;-52
2022/04/17 10:56:36;;;;;;;0.40;0.30;;;;;;;13.94;100.00;94661.13;5092388;28;20503;-51
2022/04/17 10:59:06;;;;;;;0.40;0.30;;;;;;;13.77;100.00;94669.03;5092450;28;20444;-51
2022/04/17 11:02:01;;;;;;;0.33;0.27;;;;;;;14.17;100.00;94675.19;5092229;28;20441;-52
2022/04/17 11:04:31;;;;;;;0.30;0.20;;;;;;;14.38;100.00;94672.81;5091919;28;20507;-52
2022/04/17 11:07:27;;;;;;;0.80;0.40;;;;;;;14.21;100.00;94667.38;5092189;28;20440;-52
2022/04/17 11:10:23;;;;;;;0.40;0.30;;;;;;;14.55;100.00;94668.31;5091815;28;20805;-52
2022/04/17 11:12:55;;;;;;;0.30;0.20;;;;;;;14.70;100.00;94663.66;5091959;28;20839;-52
2022/04/17 11:15:29;;;;;;;0.40;0.30;;;;;;;14.55;100.00;94648.88;5091641;28;20421;-52
2022/04/17 11:18:01;;;;;;;0.80;0.80;;;;;;;14.42;100.00;94679.13;5091675;28;20503;-51
2022/04/17 11:20:32;;;;;;;1.70;0.60;;;;;;;13.95;100.00;94670.72;5091261;28;20428;-51
2022/04/17 11:23:01;;;;;;;0.77;0.77;;;;;;;13.38;100.00;94668.16;5091545;28;20424;-51
2022/04/17 11:25:30;;;;;;;7.03;0.77;;;;;;;13.64;100.00;94664.56;5091454;28;20921;-51
2022/04/17 11:28:02;;;;;;;0.40;0.30;;;;;;;13.57;100.00;94669.53;5091985;28;20470;-51
2022/04/17 11:30:54;;;;;;;0.40;0.40;;;;;;;13.20;100.00;94635.28;5091273;28;20518;-52
2022/04/17 11:33:23;;;;;;;0.50;0.50;;;;;;;13.19;100.00;94665.63;5091874;28;20770;-52
2022/04/17 11:35:52;;;;;;;0.50;0.30;;;;;;;13.05;100.00;94670.19;5091317;28;20412;-51
2022/04/17 11:38:20;;;;;;;0.50;0.47;;;;;;;13.00;100.00;94652.47;5091303;28;20937;-52
2022/04/17 11:40:49;;;;;;;10.03;1.17;;;;;;;13.14;100.00;94661.22;5091204;28;20909;-51
2022/04/17 11:43:21;;;;;;;2.90;1.53;;;;;;;13.14;100.00;94661.22;5090156;28;20459;-52
2022/04/17 11:45:49;;;;;;;2.90;1.73;;;;;;;13.28;100.00;94655.88;5091100;28;20510;-52
2022/04/17 11:48:19;;;;;;;1.23;1.17;;;;;;;13.43;100.00;94660.03;5091630;28;20448;-51
2022/04/17 11:50:54;;;;;;;1.17;1.17;;;;;;;13.92;100.00;94657.19;5091097;28;20643;-51
2022/04/17 11:53:23;;;;;;;0.63;0.60;;;;;;;13.82;100.00;94658.25;5091395;28;20812;-53
2022/04/17 11:55:52;;;;;;;0.67;0.67;;;;;;;14.08;100.00;94657.59;5091311;28;20507;-53
2022/04/17 11:58:26;;;;;;;0.40;0.40;;;;;;;13.95;100.00;94649.41;5090925;28;20464;-52
2022/04/17 12:00:58;;;;;;;0.40;0.40;;;;;;;13.99;100.00;94654.88;5091132;28;20508;-53